Time;durP1;ratioP1;P1;durP2;ratioP2;P2;SDS_P1;SDS_P2;PMS_P1;PMS_P2;Temp;Humidity;BMP_temperature;BMP_pressure;BME280_temperature;BME280_humidity;BME280_pressure;Samples;Min_cycle;Max_cycle;Signal;HPM_P1;HPM_P2
2024/02/09 00:01:40;;;;;;;;;;;8.80;83.00;;;;;;5019813;28;87666;-60
2024/02/09 00:04:07;;;;;;;;;;;8.80;83.00;;;;;;5017087;28;87005;-60
2024/02/09 00:06:34;;;;;;;;;;;8.80;83.00;;;;;;5018989;28;87863;-60
2024/02/09 00:08:59;;;;;;;;;;;8.70;83.10;;;;;;5016244;28;88604;-60
2024/02/09 00:11:28;;;;;;;;;;;8.70;83.00;;;;;;5019662;28;86159;-60
2024/02/09 00:13:55;;;;;;;;;;;8.70;82.90;;;;;;5019545;28;87184;-60
2024/02/09 00:16:21;;;;;;;;;;;8.70;83.00;;;;;;5018497;28;87503;-60
2024/02/09 00:18:47;;;;;;;;;;;8.70;82.90;;;;;;5015285;28;87992;-60
2024/02/09 00:21:12;;;;;;;;;;;8.70;82.90;;;;;;5019065;28;87371;-60
2024/02/09 00:23:38;;;;;;;;;;;8.70;83.00;;;;;;5015886;28;87091;-60
2024/02/09 00:26:03;;;;;;;;;;;8.70;82.90;;;;;;5015970;28;87018;-60
2024/02/09 00:28:30;;;;;;;;;;;8.70;82.80;;;;;;5019303;28;87542;-60
2024/02/09 00:30:56;;;;;;;;;;;8.70;82.90;;;;;;5015493;28;86944;-60
2024/02/09 00:33:21;;;;;;;;;;;8.70;82.90;;;;;;5015680;28;86818;-60
2024/02/09 00:35:47;;;;;;;;;;;8.60;82.80;;;;;;5019389;28;87704;-60
2024/02/09 00:38:15;;;;;;;;;;;8.60;82.70;;;;;;5018483;28;87166;-60
2024/02/09 00:40:40;;;;;;;;;;;8.60;82.80;;;;;;5014770;28;88747;-60
2024/02/09 00:43:06;;;;;;;;;;;8.60;82.90;;;;;;5018715;28;87763;-60
2024/02/09 00:45:34;;;;;;;;;;;8.60;82.80;;;;;;5019129;28;88669;-60
2024/02/09 00:48:00;;;;;;;;;;;8.60;82.90;;;;;;5015270;28;88555;-60
2024/02/09 00:50:25;;;;;;;;;;;8.60;82.70;;;;;;5019092;28;87018;-60
2024/02/09 00:52:51;;;;;;;;;;;8.50;82.90;;;;;;5018240;28;87041;-60
2024/02/09 00:55:17;;;;;;;;;;;8.60;82.80;;;;;;5015450;28;87485;-58
2024/02/09 00:57:44;;;;;;;;;;;8.50;82.60;;;;;;5018915;28;87041;-60
2024/02/09 01:00:14;;;;;;;;;;;8.50;82.60;;;;;;5018991;28;86574;-60
2024/02/09 01:02:40;;;;;;;;;;;8.50;82.70;;;;;;5017951;28;87013;-60
2024/02/09 01:05:06;;;;;;;;;;;8.50;82.70;;;;;;5016594;28;86934;-60
2024/02/09 01:07:32;;;;;;;;;;;8.50;82.60;;;;;;5016715;28;88419;-58
2024/02/09 01:09:59;;;;;;;;;;;8.50;82.70;;;;;;5016274;28;87089;-60
2024/02/09 02:45:12;;;;;;;;;;;8.10;82.40;;;;;;5020087;28;87006;-57
2024/02/09 02:47:38;;;;;;;;;;;8.10;82.40;;;;;;5019250;28;86732;-60
2024/02/09 03:06:31;;;;;;;;;;;8.00;82.40;;;;;;5017759;28;87122;-60
2024/02/09 03:08:57;;;;;;;;;;;8.00;82.40;;;;;;5016744;28;87939;-59
2024/02/09 03:11:23;;;;;;;;;;;8.00;82.40;;;;;;5014928;28;86952;-60
2024/02/09 03:13:49;;;;;;;;;;;8.00;82.40;;;;;;5015503;28;86346;-60
2024/02/09 03:16:17;;;;;;;;;;;8.00;82.40;;;;;;5016234;28;87224;-60
2024/02/09 03:18:44;;;;;;;;;;;7.90;82.30;;;;;;5016703;28;88474;-60
2024/02/09 03:21:10;;;;;;;;;;;7.90;82.40;;;;;;5022346;28;88077;-60
2024/02/09 03:23:36;;;;;;;;;;;7.90;82.30;;;;;;5018943;28;88774;-60
2024/02/09 03:26:02;;;;;;;;;;;7.90;82.30;;;;;;5018392;28;87089;-60
2024/02/09 03:28:27;;;;;;;;;;;7.90;82.40;;;;;;5017299;28;86840;-60
2024/02/09 03:30:53;;;;;;;;;;;7.90;82.40;;;;;;5013333;28;87594;-60
2024/02/09 03:33:18;;;;;;;;;;;7.80;82.40;;;;;;5016697;28;87085;-60
2024/02/09 03:35:44;;;;;;;;;;;7.80;82.30;;;;;;5018295;28;87670;-57
2024/02/09 03:38:12;;;;;;;;;;;7.80;83.00;;;;;;5013114;28;88201;-60
2024/02/09 03:40:38;;;;;;;;;;;7.80;82.40;;;;;;5015629;28;87035;-60
2024/02/09 03:43:04;;;;;;;;;;;7.80;82.40;;;;;;5014974;28;87013;-60
2024/02/09 03:45:29;;;;;;;;;;;7.80;82.40;;;;;;5016883;28;87922;-60
2024/02/09 03:47:56;;;;;;;;;;;7.80;82.50;;;;;;5015373;28;87941;-60
2024/02/09 03:50:21;;;;;;;;;;;7.70;82.40;;;;;;5015516;28;88497;-60
2024/02/09 03:52:47;;;;;;;;;;;7.80;82.40;;;;;;5009943;28;87011;-58
2024/02/09 03:55:17;;;;;;;;;;;7.80;82.40;;;;;;5018354;28;86681;-60
2024/02/09 03:57:44;;;;;;;;;;;7.80;82.40;;;;;;5017470;28;87466;-60
2024/02/09 04:00:15;;;;;;;;;;;7.70;82.40;;;;;;5015199;28;86964;-60
2024/02/09 04:02:41;;;;;;;;;;;7.70;82.40;;;;;;5016035;28;87645;-59
2024/02/09 04:05:07;;;;;;;;;;;7.70;82.40;;;;;;5015275;28;87235;-61
2024/02/09 04:07:32;;;;;;;;;;;7.70;82.40;;;;;;5015757;28;88105;-60
2024/02/09 04:09:58;;;;;;;;;;;7.70;82.50;;;;;;5015755;28;88459;-61
2024/02/09 04:12:23;;;;;;;;;;;7.60;82.40;;;;;;5020211;28;86985;-60
2024/02/09 04:14:49;;;;;;;;;;;7.60;82.50;;;;;;5019145;28;86863;-60
2024/02/09 04:17:14;;;;;;;;;;;7.60;82.40;;;;;;5014831;28;87354;-60
2024/02/09 04:19:40;;;;;;;;;;;7.60;82.40;;;;;;5016577;28;87519;-60
2024/02/09 04:22:10;;;;;;;;;;;7.60;82.40;;;;;;5015218;28;87059;-60
2024/02/09 04:24:38;;;;;;;;;;;7.60;82.50;;;;;;5018027;28;88545;-60
2024/02/09 04:27:04;;;;;;;;;;;7.60;82.50;;;;;;5016137;28;86387;-60
2024/02/09 04:29:32;;;;;;;;;;;7.60;82.50;;;;;;5014365;28;88554;-59
2024/02/09 04:31:58;;;;;;;;;;;7.60;82.50;;;;;;5014747;28;87428;-60
2024/02/09 04:34:24;;;;;;;;;;;7.50;82.50;;;;;;5015486;28;88492;-60
2024/02/09 04:36:49;;;;;;;;;;;7.50;82.50;;;;;;5015040;28;87156;-60
2024/02/09 04:39:15;;;;;;;;;;;7.50;82.60;;;;;;5011524;28;86941;-60
2024/02/09 04:41:45;;;;;;;;;;;7.50;82.50;;;;;;5012417;28;87797;-60
2024/02/09 04:44:11;;;;;;;;;;;7.50;82.50;;;;;;5014930;28;88345;-59
2024/02/09 04:46:38;;;;;;;;;;;7.50;82.50;;;;;;5017181;28;86948;-60
2024/02/09 04:49:06;;;;;;;;;;;7.50;82.60;;;;;;5013299;28;87696;-60
2024/02/09 04:51:33;;;;;;;;;;;7.40;82.50;;;;;;5019928;28;86268;-60
2024/02/09 04:53:59;;;;;;;;;;;7.40;82.40;;;;;;5015197;28;86959;-59
2024/02/09 04:56:26;;;;;;;;;;;7.40;82.40;;;;;;5014511;28;87389;-59
2024/02/09 04:58:52;;;;;;;;;;;7.40;82.50;;;;;;5011994;28;87757;-60
2024/02/09 05:01:27;;;;;;;;;;;7.40;82.50;;;;;;5016936;28;88951;-60
2024/02/09 05:03:54;;;;;;;;;;;7.40;82.60;;;;;;5014021;28;87476;-60
2024/02/09 05:06:20;;;;;;;;;;;7.40;82.50;;;;;;5011564;28;87029;-60
2024/02/09 05:08:46;;;;;;;;;;;7.40;82.50;;;;;;5017728;28;87526;-60
2024/02/09 05:11:11;;;;;;;;;;;7.30;82.50;;;;;;5018565;28;87080;-60
2024/02/09 05:13:37;;;;;;;;;;;7.30;82.50;;;;;;5016079;28;86891;-61
2024/02/09 05:16:03;;;;;;;;;;;7.30;82.50;;;;;;5014460;28;89300;-60
2024/02/09 05:18:28;;;;;;;;;;;7.30;82.50;;;;;;5010017;28;87142;-60
2024/02/09 05:20:54;;;;;;;;;;;7.30;82.50;;;;;;5015084;28;86914;-60
2024/02/09 05:23:19;;;;;;;;;;;7.30;82.60;;;;;;5017171;28;88279;-60
2024/02/09 05:25:45;;;;;;;;;;;7.30;82.50;;;;;;5019835;28;87057;-60
2024/02/09 05:28:10;;;;;;;;;;;7.30;82.50;;;;;;5009748;28;87711;-60
2024/02/09 05:30:36;;;;;;;;;;;7.20;82.40;;;;;;5017239;28;87754;-60
2024/02/09 05:33:04;;;;;;;;;;;7.20;82.40;;;;;;5013135;28;88540;-60
2024/02/09 05:35:29;;;;;;;;;;;7.20;82.30;;;;;;5010001;28;88576;-60
2024/02/09 05:37:55;;;;;;;;;;;7.20;82.40;;;;;;5014813;28;86972;-60
2024/02/09 05:40:20;;;;;;;;;;;7.20;82.40;;;;;;5018015;28;86140;-60
2024/02/09 05:42:47;;;;;;;;;;;7.20;82.40;;;;;;5015085;28;87097;-60
2024/02/09 05:45:13;;;;;;;;;;;7.20;82.40;;;;;;5017616;28;87056;-60
2024/02/09 05:47:39;;;;;;;;;;;7.20;82.50;;;;;;5013051;28;88650;-59
2024/02/09 05:50:05;;;;;;;;;;;7.20;82.40;;;;;;5014153;28;86940;-60
2024/02/09 05:52:30;;;;;;;;;;;7.20;82.40;;;;;;5021047;28;87034;-59
2024/02/09 05:54:56;;;;;;;;;;;7.20;82.40;;;;;;5008446;28;88517;-60
2024/02/09 05:57:25;;;;;;;;;;;7.10;82.30;;;;;;5015937;28;87043;-59
2024/02/09 05:59:50;;;;;;;;;;;7.10;82.30;;;;;;5008921;28;86929;-60
2024/02/09 06:02:17;;;;;;;;;;;7.10;82.30;;;;;;5012711;28;87537;-60
2024/02/09 06:04:43;;;;;;;;;;;7.10;82.30;;;;;;5010721;28;86198;-60
2024/02/09 06:07:08;;;;;;;;;;;7.10;82.20;;;;;;5014525;28;86947;-60
2024/02/09 06:09:35;;;;;;;;;;;7.10;82.40;;;;;;5017660;28;88946;-60
2024/02/09 06:12:01;;;;;;;;;;;7.00;82.30;;;;;;5020230;28;87920;-60
2024/02/09 06:14:27;;;;;;;;;;;7.00;82.40;;;;;;5015490;28;87522;-58
2024/02/09 06:16:55;;;;;;;;;;;7.00;82.30;;;;;;5014371;28;86913;-60
2024/02/09 06:19:23;;;;;;;;;;;7.00;82.40;;;;;;5014350;28;86897;-60
2024/02/09 06:21:49;;;;;;;;;;;7.00;82.40;;;;;;5016741;28;88516;-60
2024/02/09 06:24:14;;;;;;;;;;;7.00;82.30;;;;;;5010096;28;87005;-60
2024/02/09 06:26:40;;;;;;;;;;;7.10;82.40;;;;;;5014278;28;86905;-59
2024/02/09 06:29:07;;;;;;;;;;;7.00;82.30;;;;;;5013813;28;86752;-59
2024/02/09 06:31:39;;;;;;;;;;;7.00;82.30;;;;;;5012885;28;87054;-60
2024/02/09 06:34:04;;;;;;;;;;;7.00;82.20;;;;;;5016450;28;87805;-60
2024/02/09 06:36:30;;;;;;;;;;;7.00;82.30;;;;;;5014548;28;87991;-60
2024/02/09 06:38:55;;;;;;;;;;;7.00;82.30;;;;;;5015371;28;87663;-60
2024/02/09 06:41:21;;;;;;;;;;;7.00;82.30;;;;;;5014312;28;88438;-60
2024/02/09 06:43:47;;;;;;;;;;;7.00;82.30;;;;;;5015827;28;86994;-60
2024/02/09 06:46:16;;;;;;;;;;;6.90;82.20;;;;;;5014123;28;89604;-60
2024/02/09 06:48:42;;;;;;;;;;;7.00;82.30;;;;;;5015001;28;89068;-59
2024/02/09 06:51:07;;;;;;;;;;;6.90;82.20;;;;;;5016359;28;87319;-60
2024/02/09 06:53:33;;;;;;;;;;;6.90;82.30;;;;;;5019199;28;87928;-59
2024/02/09 06:56:00;;;;;;;;;;;6.90;82.20;;;;;;5015494;28;88588;-58
2024/02/09 06:58:25;;;;;;;;;;;6.90;82.10;;;;;;5019164;28;86955;-59
2024/02/09 07:00:53;;;;;;;;;;;6.90;82.20;;;;;;5018082;28;88775;-60
2024/02/09 07:03:21;;;;;;;;;;;6.90;82.20;;;;;;5020937;28;87045;-60
2024/02/09 07:05:49;;;;;;;;;;;6.90;82.30;;;;;;5019615;28;87926;-60
2024/02/09 07:08:22;;;;;;;;;;;6.90;82.20;;;;;;5014356;28;88599;-60
2024/02/09 07:10:47;;;;;;;;;;;6.90;82.20;;;;;;5016897;28;86907;-60
2024/02/09 07:13:16;;;;;;;;;;;6.90;82.20;;;;;;5014708;28;86971;-58
2024/02/09 07:15:42;;;;;;;;;;;6.90;82.20;;;;;;5016418;28;87644;-60
2024/02/09 07:18:08;;;;;;;;;;;6.90;82.10;;;;;;5022370;28;86274;-60
2024/02/09 07:20:35;;;;;;;;;;;6.90;82.20;;;;;;5016538;28;87539;-60
2024/02/09 07:23:01;;;;;;;;;;;6.90;82.20;;;;;;5016443;28;86774;-59
2024/02/09 07:25:26;;;;;;;;;;;6.90;82.20;;;;;;5013987;28;87877;-60
2024/02/09 07:27:52;;;;;;;;;;;6.90;82.20;;;;;;5016393;28;87597;-60
2024/02/09 07:30:17;;;;;;;;;;;6.90;82.20;;;;;;5017283;28;86919;-60
2024/02/09 07:32:43;;;;;;;;;;;6.90;82.20;;;;;;5019962;28;87926;-60
2024/02/09 07:35:09;;;;;;;;;;;6.90;82.30;;;;;;5016569;28;88648;-60
2024/02/09 07:37:35;;;;;;;;;;;6.90;82.30;;;;;;5013770;28;87031;-60
2024/02/09 07:40:02;;;;;;;;;;;6.90;82.40;;;;;;5016990;28;87346;-60
2024/02/09 07:42:30;;;;;;;;;;;6.90;82.30;;;;;;5017636;28;86242;-60
2024/02/09 07:44:57;;;;;;;;;;;6.90;82.30;;;;;;5019443;28;87023;-60
2024/02/09 07:47:23;;;;;;;;;;;6.90;82.40;;;;;;5014469;28;88786;-59
2024/02/09 07:49:48;;;;;;;;;;;6.90;82.30;;;;;;5017801;28;87970;-59
2024/02/09 07:52:14;;;;;;;;;;;6.90;82.40;;;;;;5013741;28;86985;-60
2024/02/09 07:54:40;;;;;;;;;;;6.90;82.40;;;;;;5016206;28;87444;-60
2024/02/09 07:57:06;;;;;;;;;;;6.90;82.50;;;;;;5015173;28;87248;-60
2024/02/09 07:59:31;;;;;;;;;;;6.90;82.50;;;;;;5014615;28;87925;-60
2024/02/09 08:01:57;;;;;;;;;;;6.90;82.50;;;;;;5016664;28;87437;-60
2024/02/09 08:04:30;;;;;;;;;;;6.90;82.50;;;;;;5016119;28;86985;-60
2024/02/09 08:06:56;;;;;;;;;;;6.90;82.50;;;;;;5017639;28;87706;-60
2024/02/09 08:09:21;;;;;;;;;;;6.90;82.60;;;;;;5012289;28;87002;-60
2024/02/09 08:11:48;;;;;;;;;;;6.80;82.50;;;;;;5012516;28;87026;-60
2024/02/09 08:14:14;;;;;;;;;;;6.90;82.60;;;;;;5009950;28;89207;-60
2024/02/09 08:16:39;;;;;;;;;;;6.80;82.60;;;;;;5013626;28;87050;-60
2024/02/09 08:19:09;;;;;;;;;;;6.90;82.60;;;;;;5015019;28;87757;-60
2024/02/09 08:21:38;;;;;;;;;;;6.90;82.60;;;;;;5017578;28;88526;-60
2024/02/09 08:24:05;;;;;;;;;;;6.90;82.70;;;;;;5018834;28;87869;-58
2024/02/09 08:26:31;;;;;;;;;;;6.90;82.70;;;;;;5017001;28;88519;-60
2024/02/09 08:28:57;;;;;;;;;;;6.90;82.70;;;;;;5016573;28;86988;-60
2024/02/09 08:31:23;;;;;;;;;;;6.90;82.70;;;;;;5018918;28;88072;-60
2024/02/09 08:33:49;;;;;;;;;;;6.90;82.70;;;;;;5015892;28;87456;-60
2024/02/09 08:36:21;;;;;;;;;;;6.90;82.70;;;;;;5018755;28;87013;-60
2024/02/09 08:38:47;;;;;;;;;;;6.90;82.70;;;;;;5011518;28;87906;-60
2024/02/09 08:41:12;;;;;;;;;;;6.90;82.70;;;;;;5017027;28;88477;-60
2024/02/09 08:43:38;;;;;;;;;;;6.90;82.70;;;;;;5020109;28;86896;-59
2024/02/09 08:46:04;;;;;;;;;;;6.90;82.70;;;;;;5015227;28;88497;-60
2024/02/09 08:48:29;;;;;;;;;;;6.90;82.70;;;;;;5015143;28;86910;-60
2024/02/09 08:50:55;;;;;;;;;;;6.90;82.70;;;;;;5015962;28;87035;-60
2024/02/09 08:53:20;;;;;;;;;;;6.90;82.60;;;;;;5018450;28;87474;-60
2024/02/09 08:55:46;;;;;;;;;;;6.90;82.60;;;;;;5016017;28;86182;-60
2024/02/09 08:58:11;;;;;;;;;;;6.90;82.60;;;;;;5013811;28;87110;-60
2024/02/09 09:00:37;;;;;;;;;;;6.90;82.50;;;;;;5008514;28;88250;-59
2024/02/09 09:03:03;;;;;;;;;;;6.90;82.60;;;;;;5013600;28;87987;-60
2024/02/09 09:05:28;;;;;;;;;;;6.90;82.60;;;;;;5011084;28;87734;-60
2024/02/09 09:07:54;;;;;;;;;;;6.90;82.60;;;;;;5014913;28;87119;-60
2024/02/09 09:10:20;;;;;;;;;;;6.90;82.60;;;;;;5019125;28;86680;-60
2024/02/09 09:12:46;;;;;;;;;;;6.90;82.60;;;;;;5014441;28;87429;-60
2024/02/09 09:15:12;;;;;;;;;;;6.90;82.60;;;;;;5014262;28;87037;-60
2024/02/09 09:17:37;;;;;;;;;;;6.90;82.50;;;;;;5018996;28;87013;-58
2024/02/09 09:20:04;;;;;;;;;;;7.00;82.60;;;;;;5015210;28;86853;-60
2024/02/09 09:22:31;;;;;;;;;;;7.00;82.50;;;;;;5014816;28;87373;-59
2024/02/09 09:24:56;;;;;;;;;;;6.90;82.40;;;;;;5014396;28;87756;-59
2024/02/09 09:27:23;;;;;;;;;;;7.00;82.50;;;;;;5017136;28;89310;-60
2024/02/09 09:29:51;;;;;;;;;;;6.90;82.50;;;;;;5014976;28;88984;-60
2024/02/09 09:32:19;;;;;;;;;;;7.00;82.50;;;;;;5014283;28;86783;-60
2024/02/09 09:34:45;;;;;;;;;;;6.90;82.40;;;;;;5017545;28;87039;-60
2024/02/09 09:37:11;;;;;;;;;;;6.90;82.30;;;;;;5015430;28;87826;-60
2024/02/09 09:39:36;;;;;;;;;;;6.90;82.30;;;;;;5017361;28;87486;-60
2024/02/09 09:42:03;;;;;;;;;;;7.00;82.30;;;;;;5014947;28;87071;-60
2024/02/09 09:44:29;;;;;;;;;;;7.00;82.40;;;;;;5017750;28;87813;-60
2024/02/09 09:46:57;;;;;;;;;;;7.00;82.40;;;;;;5016752;28;88450;-60
2024/02/09 09:49:24;;;;;;;;;;;7.00;82.30;;;;;;5014264;28;86995;-60
2024/02/09 09:51:50;;;;;;;;;;;7.00;82.30;;;;;;5010695;28;89630;-60
2024/02/09 09:54:20;;;;;;;;;;;7.00;82.30;;;;;;5016661;28;86954;-58
2024/02/09 09:56:46;;;;;;;;;;;7.00;82.50;;;;;;5016650;28;87737;-60
2024/02/09 09:59:12;;;;;;;;;;;7.00;82.40;;;;;;5018077;28;87530;-59
2024/02/09 10:01:38;;;;;;;;;;;7.00;82.40;;;;;;5014755;28;87054;-60
2024/02/09 10:04:04;;;;;;;;;;;7.00;82.40;;;;;;5017069;28;86910;-59
2024/02/09 10:06:30;;;;;;;;;;;7.00;82.40;;;;;;5015330;28;87455;-59
2024/02/09 10:08:55;;;;;;;;;;;7.00;82.50;;;;;;5017372;28;86390;-60
2024/02/09 10:11:21;;;;;;;;;;;7.00;82.60;;;;;;5017935;28;87186;-60
2024/02/09 10:13:50;;;;;;;;;;;7.00;82.70;;;;;;5015657;28;86983;-60
2024/02/09 10:16:16;;;;;;;;;;;7.00;82.90;;;;;;5013108;28;87995;-60
2024/02/09 10:18:42;;;;;;;;;;;7.00;83.00;;;;;;5015998;28;88525;-59
2024/02/09 10:21:11;;;;;;;;;;;7.00;82.90;;;;;;5009574;28;87672;-60
2024/02/09 10:23:37;;;;;;;;;;;7.00;83.20;;;;;;5017443;28;87953;-59
2024/02/09 10:26:06;;;;;;;;;;;7.10;83.20;;;;;;5014055;28;88414;-60
2024/02/09 10:28:33;;;;;;;;;;;7.10;83.50;;;;;;5017612;28;87070;-60
2024/02/09 10:31:03;;;;;;;;;;;7.10;83.60;;;;;;5020138;28;87898;-60
2024/02/09 10:33:28;;;;;;;;;;;7.10;83.80;;;;;;5018491;28;86254;-60
2024/02/09 10:35:57;;;;;;;;;;;7.10;83.80;;;;;;5020670;28;87002;-60
2024/02/09 10:38:23;;;;;;;;;;;7.10;84.00;;;;;;5017347;28;87537;-60
2024/02/09 10:40:53;;;;;;;;;;;7.10;83.90;;;;;;5015940;28;91709;-60
2024/02/09 10:43:20;;;;;;;;;;;7.10;84.10;;;;;;5016431;28;88833;-60
2024/02/09 10:45:46;;;;;;;;;;;7.20;84.40;;;;;;5019298;28;86995;-60
2024/02/09 10:48:14;;;;;;;;;;;7.20;84.00;;;;;;5013896;28;87105;-60
2024/02/09 10:50:40;;;;;;;;;;;7.20;84.40;;;;;;5019171;28;87706;-60
2024/02/09 10:53:10;;;;;;;;;;;7.20;84.40;;;;;;5021854;28;88518;-60
2024/02/09 10:55:38;;;;;;;;;;;7.20;84.50;;;;;;5018071;28;87044;-60
2024/02/09 10:58:04;;;;;;;;;;;7.20;84.50;;;;;;5016978;28;87760;-60
2024/02/09 11:00:31;;;;;;;;;;;7.20;84.60;;;;;;5020098;28;86893;-59
2024/02/09 11:02:57;;;;;;;;;;;7.20;84.70;;;;;;5017543;28;87743;-60
2024/02/09 11:05:23;;;;;;;;;;;7.30;84.70;;;;;;5016248;28;88428;-59
2024/02/09 11:07:50;;;;;;;;;;;7.30;84.60;;;;;;5015632;28;86909;-60
2024/02/09 11:10:16;;;;;;;;;;;7.30;84.80;;;;;;5020520;28;87282;-60
2024/02/09 11:12:42;;;;;;;;;;;7.30;84.80;;;;;;5017082;28;87611;-60
2024/02/09 11:15:12;;;;;;;;;;;7.30;85.30;;;;;;5023374;28;87058;-60
2024/02/09 11:17:42;;;;;;;;;;;7.40;84.80;;;;;;5016917;28;88440;-60
2024/02/09 11:20:09;;;;;;;;;;;7.40;84.70;;;;;;5013287;28;86944;-60
2024/02/09 11:22:38;;;;;;;;;;;7.40;84.90;;;;;;5018676;28;86842;-60
2024/02/09 11:25:07;;;;;;;;;;;7.40;85.00;;;;;;5017755;28;87433;-60
2024/02/09 11:27:33;;;;;;;;;;;7.40;85.10;;;;;;5018872;28;86990;-60
2024/02/09 11:29:58;;;;;;;;;;;7.40;84.90;;;;;;5017644;28;87931;-59
2024/02/09 11:32:25;;;;;;;;;;;7.40;85.00;;;;;;5018589;28;87633;-60
2024/02/09 11:34:54;;;;;;;;;;;7.50;85.10;;;;;;5015904;28;86965;-60
2024/02/09 11:37:20;;;;;;;;;;;7.50;85.00;;;;;;5015904;28;87413;-59
2024/02/09 11:39:45;;;;;;;;;;;7.50;85.10;;;;;;5017934;28;86669;-55
2024/02/09 11:42:11;;;;;;;;;;;7.50;85.20;;;;;;5012711;28;86812;-60
2024/02/09 11:44:37;;;;;;;;;;;7.50;85.30;;;;;;5018469;28;87503;-60
2024/02/09 11:47:03;;;;;;;;;;;7.50;85.00;;;;;;5018185;28;86324;-60
2024/02/09 11:49:29;;;;;;;;;;;7.50;85.10;;;;;;5014217;28;87004;-60
2024/02/09 11:52:08;;;;;;;;;;;7.50;85.10;;;;;;5012774;28;87502;-60
2024/02/09 11:54:34;;;;;;;;;;;7.50;85.20;;;;;;5015700;28;87743;-60
2024/02/09 11:57:00;;;;;;;;;;;7.60;85.30;;;;;;5019573;28;89399;-60
2024/02/09 11:59:28;;;;;;;;;;;7.60;85.20;;;;;;5018864;28;88470;-60
2024/02/09 12:01:53;;;;;;;;;;;7.60;85.50;;;;;;5019312;28;87021;-59
2024/02/09 12:04:19;;;;;;;;;;;7.60;85.60;;;;;;5016326;28;87504;-59
2024/02/09 12:06:45;;;;;;;;;;;7.70;85.50;;;;;;5019642;28;86954;-60
2024/02/09 12:09:12;;;;;;;;;;;7.60;85.60;;;;;;5016470;28;87674;-60
2024/02/09 12:11:38;;;;;;;;;;;7.70;85.70;;;;;;5019201;28;87746;-60
2024/02/09 12:14:04;;;;;;;;;;;7.70;85.70;;;;;;5016405;28;87020;-60
2024/02/09 12:16:30;;;;;;;;;;;7.70;85.70;;;;;;5015905;28;86890;-60
2024/02/09 12:18:57;;;;;;;;;;;7.80;85.40;;;;;;5017348;28;88570;-60
2024/02/09 12:21:22;;;;;;;;;;;7.80;85.70;;;;;;5019580;28;87007;-59
2024/02/09 12:23:49;;;;;;;;;;;7.80;85.80;;;;;;5011867;28;88581;-60
2024/02/09 12:26:15;;;;;;;;;;;7.80;85.60;;;;;;5012973;28;86985;-60
2024/02/09 12:28:40;;;;;;;;;;;7.80;85.40;;;;;;5018728;28;86998;-60
2024/02/09 12:31:06;;;;;;;;;;;7.80;85.60;;;;;;5015604;28;87578;-60
2024/02/09 12:33:35;;;;;;;;;;;7.90;85.40;;;;;;5016715;28;86957;-60
2024/02/09 12:36:04;;;;;;;;;;;7.90;85.60;;;;;;5018660;28;86696;-60
2024/02/09 12:38:31;;;;;;;;;;;7.90;85.50;;;;;;5010724;28;88602;-60
2024/02/09 12:40:56;;;;;;;;;;;7.90;85.50;;;;;;5019886;28;87114;-59
2024/02/09 12:43:22;;;;;;;;;;;7.90;85.60;;;;;;5014663;28;89294;-60
2024/02/09 12:45:48;;;;;;;;;;;7.90;85.70;;;;;;5012936;28;86995;-60
2024/02/09 12:48:20;;;;;;;;;;;7.90;85.50;;;;;;5017756;28;87785;-60
2024/02/09 12:50:47;;;;;;;;;;;7.90;85.60;;;;;;5014518;28;87575;-60
2024/02/09 12:53:14;;;;;;;;;;;8.00;85.70;;;;;;5016967;28;86947;-59
2024/02/09 12:55:40;;;;;;;;;;;8.00;85.50;;;;;;5015199;28;87821;-59
2024/02/09 12:58:09;;;;;;;;;;;8.00;85.40;;;;;;5018298;28;88140;-60
2024/02/09 13:00:35;;;;;;;;;;;8.00;85.50;;;;;;5015882;28;86238;-60
2024/02/09 13:03:00;;;;;;;;;;;8.00;85.70;;;;;;5021650;28;86957;-59
2024/02/09 13:05:30;;;;;;;;;;;8.00;85.40;;;;;;5015565;28;87073;-60
2024/02/09 13:07:57;;;;;;;;;;;8.10;85.40;;;;;;5014668;28;87882;-60
2024/02/09 13:10:23;;;;;;;;;;;8.10;85.10;;;;;;5021947;28;88657;-59
2024/02/09 13:12:48;;;;;;;;;;;8.10;85.20;;;;;;5009323;28;87090;-60
2024/02/09 13:15:15;;;;;;;;;;;8.10;85.30;;;;;;5014664;28;86843;-59
2024/02/09 13:17:40;;;;;;;;;;;8.10;85.20;;;;;;5010661;28;88370;-60
2024/02/09 13:20:08;;;;;;;;;;;8.10;85.10;;;;;;5016345;28;86889;-59
2024/02/09 13:22:37;;;;;;;;;;;8.20;85.10;;;;;;5018706;28;87855;-59
2024/02/09 13:25:04;;;;;;;;;;;8.20;85.10;;;;;;5016538;28;87626;-59
2024/02/09 13:27:30;;;;;;;;;;;8.20;85.20;;;;;;5017569;28;86929;-60
2024/02/09 13:29:57;;;;;;;;;;;8.20;85.10;;;;;;5015706;28;86946;-59
2024/02/09 13:32:24;;;;;;;;;;;8.20;85.10;;;;;;5013648;28;87919;-59
2024/02/09 13:34:50;;;;;;;;;;;8.20;85.00;;;;;;5015734;28;90336;-60
2024/02/09 13:37:16;;;;;;;;;;;8.30;85.20;;;;;;5018147;28;88395;-58
2024/02/09 13:39:41;;;;;;;;;;;8.20;85.50;;;;;;5016092;28;87029;-60
2024/02/09 13:42:07;;;;;;;;;;;8.30;85.40;;;;;;5016376;28;87863;-60
2024/02/09 13:44:37;;;;;;;;;;;8.30;85.20;;;;;;5015958;28;87600;-60
2024/02/09 13:47:03;;;;;;;;;;;8.30;85.50;;;;;;5017817;28;87232;-59
2024/02/09 13:49:30;;;;;;;;;;;8.30;85.30;;;;;;5017024;28;86778;-60
2024/02/09 13:51:57;;;;;;;;;;;8.30;85.20;;;;;;5015934;28;87067;-59
2024/02/09 13:54:23;;;;;;;;;;;8.30;85.20;;;;;;5014496;28;86943;-60
2024/02/09 13:56:48;;;;;;;;;;;8.40;85.30;;;;;;5016073;28;88458;-60
2024/02/09 13:59:14;;;;;;;;;;;8.40;85.10;;;;;;5018736;28;87535;-59
2024/02/09 14:01:40;;;;;;;;;;;8.40;85.40;;;;;;5018548;28;88180;-60
2024/02/09 14:04:07;;;;;;;;;;;8.40;85.30;;;;;;5020245;28;88485;-60
2024/02/09 14:06:35;;;;;;;;;;;8.40;85.10;;;;;;5018873;28;87017;-58
2024/02/09 14:09:01;;;;;;;;;;;8.50;85.00;;;;;;5023420;28;86831;-59
2024/02/09 14:11:27;;;;;;;;;;;8.50;85.20;;;;;;5018951;28;86962;-59
2024/02/09 14:13:53;;;;;;;;;;;8.50;85.20;;;;;;5021796;28;86744;-59
2024/02/09 14:16:20;;;;;;;;;;;8.50;85.20;;;;;;5018503;28;87459;-60
2024/02/09 14:18:46;;;;;;;;;;;8.50;85.30;;;;;;5021058;28;86927;-60
2024/02/09 14:21:12;;;;;;;;;;;8.50;85.10;;;;;;5017685;28;87793;-59
2024/02/09 14:23:38;;;;;;;;;;;8.50;85.30;;;;;;5018040;28;88697;-59
2024/02/09 14:26:05;;;;;;;;;;;8.50;84.80;;;;;;5015949;28;87032;-59
2024/02/09 14:28:30;;;;;;;;;;;8.50;85.00;;;;;;5023688;28;86972;-59
2024/02/09 14:30:56;;;;;;;;;;;8.60;84.80;;;;;;5018753;28;87084;-59
2024/02/09 14:33:22;;;;;;;;;;;8.60;84.90;;;;;;5019748;28;87945;-60
2024/02/09 14:35:48;;;;;;;;;;;8.60;85.40;;;;;;5016471;28;88571;-59
2024/02/09 14:38:14;;;;;;;;;;;8.60;84.90;;;;;;5016927;28;86272;-60
2024/02/09 14:40:39;;;;;;;;;;;8.60;84.80;;;;;;5014286;28;87443;-60
2024/02/09 14:43:05;;;;;;;;;;;8.60;85.20;;;;;;5015833;28;87484;-60
2024/02/09 14:45:34;;;;;;;;;;;8.70;85.10;;;;;;5016826;28;88016;-59
2024/02/09 14:47:59;;;;;;;;;;;8.70;85.10;;;;;;5018175;28;86913;-59
2024/02/09 14:50:28;;;;;;;;;;;8.70;85.00;;;;;;5019960;28;88478;-60
2024/02/09 14:52:53;;;;;;;;;;;8.70;85.20;;;;;;5017453;28;87646;-59
2024/02/09 14:55:22;;;;;;;;;;;8.70;85.00;;;;;;5020796;28;87444;-60
2024/02/09 14:57:48;;;;;;;;;;;8.70;85.20;;;;;;5017016;28;87294;-60
2024/02/09 15:00:15;;;;;;;;;;;8.70;85.00;;;;;;5013872;28;88071;-59
2024/02/09 15:02:44;;;;;;;;;;;8.70;85.10;;;;;;5020082;28;87919;-60
2024/02/09 15:05:14;;;;;;;;;;;8.70;85.40;;;;;;5018383;28;86996;-59
2024/02/09 15:07:41;;;;;;;;;;;8.80;85.00;;;;;;5018051;28;87920;-59
2024/02/09 15:10:07;;;;;;;;;;;8.80;85.30;;;;;;5013713;28;88688;-59
2024/02/09 15:12:34;;;;;;;;;;;8.80;85.40;;;;;;5021097;28;86855;-58
2024/02/09 15:15:00;;;;;;;;;;;8.80;85.20;;;;;;5018729;28;87638;-59
2024/02/09 15:17:26;;;;;;;;;;;8.80;85.30;;;;;;5020424;28;86812;-60
2024/02/09 15:19:52;;;;;;;;;;;8.80;85.50;;;;;;5016813;28;87008;-60
2024/02/09 15:22:18;;;;;;;;;;;8.80;85.60;;;;;;5016246;28;88477;-59
2024/02/09 15:24:44;;;;;;;;;;;8.80;85.40;;;;;;5018781;28;86927;-60
2024/02/09 15:27:09;;;;;;;;;;;8.80;85.50;;;;;;5016123;28;86465;-60
2024/02/09 15:29:35;;;;;;;;;;;8.80;85.50;;;;;;5014161;28;88379;-60
2024/02/09 15:32:01;;;;;;;;;;;8.80;85.40;;;;;;5013289;28;86975;-58
2024/02/09 15:34:27;;;;;;;;;;;8.80;85.40;;;;;;5018126;28;87955;-60
2024/02/09 15:36:53;;;;;;;;;;;8.90;85.40;;;;;;5018644;28;87165;-59
2024/02/09 15:39:19;;;;;;;;;;;8.90;85.50;;;;;;5020633;28;87039;-60
2024/02/09 15:41:44;;;;;;;;;;;8.90;85.60;;;;;;5019990;28;87494;-60
2024/02/09 15:44:11;;;;;;;;;;;8.90;85.50;;;;;;5017951;28;86890;-60
2024/02/09 15:46:37;;;;;;;;;;;8.90;85.60;;;;;;5015869;28;87028;-59
2024/02/09 15:49:02;;;;;;;;;;;8.90;85.60;;;;;;5018250;28;88669;-59
2024/02/09 15:51:30;;;;;;;;;;;8.90;85.60;;;;;;5013016;28;86278;-60
2024/02/09 15:53:57;;;;;;;;;;;8.90;85.80;;;;;;5016284;28;87334;-60
2024/02/09 15:56:25;;;;;;;;;;;8.90;85.70;;;;;;5018236;28;88377;-60
2024/02/09 15:58:51;;;;;;;;;;;8.90;85.60;;;;;;5016247;28;87973;-60
2024/02/09 16:01:17;;;;;;;;;;;8.90;85.60;;;;;;5016048;28;87491;-60
2024/02/09 16:03:43;;;;;;;;;;;8.90;85.60;;;;;;5015948;28;86981;-60
2024/02/09 16:06:11;;;;;;;;;;;8.90;85.60;;;;;;5018202;28;89492;-60
2024/02/09 16:08:37;;;;;;;;;;;9.00;85.70;;;;;;5015852;28;87557;-60
2024/02/09 16:11:03;;;;;;;;;;;9.00;85.60;;;;;;5020034;28;87196;-59
2024/02/09 16:13:29;;;;;;;;;;;9.00;85.80;;;;;;5016293;28;87269;-60
2024/02/09 16:15:54;;;;;;;;;;;9.00;85.80;;;;;;5019982;28;86717;-59